Time;durP1;ratioP1;P1;durP2;ratioP2;P2;SDS_P1;SDS_P2;PMS_P1;PMS_P2;Temp;Humidity;BMP_temperature;BMP_pressure;BME280_temperature;BME280_humidity;BME280_pressure;Samples;Min_cycle;Max_cycle;Signal;HPM_P1;HPM_P2
2021/05/21 00:01:29;;;;;;;1.90;1.20;;;;;;;;;;5072504;28;20035;-48
2021/05/21 00:03:55;;;;;;;1.83;1.20;;;;;;;;;;5072938;28;20104;-47
2021/05/21 00:06:21;;;;;;;1.88;1.30;;;;;;;;;;5072952;28;20418;-48
2021/05/21 00:08:47;;;;;;;1.60;0.98;;;;;;;;;;5072665;28;20129;-48
2021/05/21 00:11:13;;;;;;;2.53;1.58;;;;;;;;;;5072920;28;20028;-47
2021/05/21 00:13:39;;;;;;;2.10;1.55;;;;;;;;;;5072878;28;20029;-48
2021/05/21 00:16:05;;;;;;;2.50;1.50;;;;;;;;;;5076610;28;20016;-47
2021/05/21 00:18:31;;;;;;;1.48;1.27;;;;;;;;;;5092820;28;20331;-47
2021/05/21 00:20:57;;;;;;;3.60;1.50;;;;;;;;;;5092659;28;20020;-49
2021/05/21 00:23:23;;;;;;;2.35;1.33;;;;;;;;;;5092719;28;20036;-48
2021/05/21 00:25:50;;;;;;;1.10;1.00;;;;;;;;;;5093111;28;20445;-48
2021/05/21 00:28:16;;;;;;;2.67;1.55;;;;;;;;;;5092436;28;20024;-48
2021/05/21 00:30:42;;;;;;;2.60;1.23;;;;;;;;;;5092207;28;20050;-48
2021/05/21 00:33:08;;;;;;;3.17;1.38;;;;;;;;;;5092519;28;20579;-47
2021/05/21 00:35:33;;;;;;;2.03;1.30;;;;;;;;;;5092639;28;20122;-48
2021/05/21 00:37:59;;;;;;;2.20;1.10;;;;;;;;;;5092831;28;20146;-48
2021/05/21 00:40:25;;;;;;;4.90;1.50;;;;;;;;;;5092309;28;20012;-48
2021/05/21 00:42:51;;;;;;;2.10;1.58;;;;;;;;;;5092240;28;20061;-48
2021/05/21 00:45:18;;;;;;;1.52;1.30;;;;;;;;;;5092525;28;20442;-48
2021/05/21 00:47:44;;;;;;;2.70;1.52;;;;;;;;;;5092909;28;20078;-48
2021/05/21 00:50:10;;;;;;;5.47;1.50;;;;;;;;;;5091825;28;20445;-48
2021/05/21 00:52:38;;;;;;;1.52;1.33;;;;;;;;;;5092728;28;20039;-48
2021/05/21 00:55:05;;;;;;;1.50;1.40;;;;;;;;;;5092115;28;20028;-48
2021/05/21 00:57:31;;;;;;;3.53;1.40;;;;;;;;;;5092190;28;20028;-47
2021/05/21 00:59:57;;;;;;;1.67;1.23;;;;;;;;;;5091972;28;20028;-48
2021/05/21 01:02:23;;;;;;;1.77;1.23;;;;;;;;;;5092106;28;20503;-48
2021/05/21 01:04:50;;;;;;;2.70;1.40;;;;;;;;;;5092004;28;20027;-48
2021/05/21 01:07:16;;;;;;;1.98;1.60;;;;;;;;;;5092262;28;20012;-48
2021/05/21 01:09:42;;;;;;;5.10;1.50;;;;;;;;;;5091548;28;20401;-48
2021/05/21 01:12:09;;;;;;;5.18;1.15;;;;;;;;;;5091495;28;20047;-47
2021/05/21 01:14:35;;;;;;;2.78;1.42;;;;;;;;;;5091891;28;20020;-47
2021/05/21 01:17:01;;;;;;;5.40;2.22;;;;;;;;;;5092049;28;20065;-48
2021/05/21 01:19:27;;;;;;;2.17;1.60;;;;;;;;;;5091786;28;20046;-48
2021/05/21 01:21:53;;;;;;;1.17;1.10;;;;;;;;;;5091311;28;20532;-47
2021/05/21 01:24:19;;;;;;;3.83;1.90;;;;;;;;;;5091467;28;20051;-48
2021/05/21 01:26:47;;;;;;;2.30;1.58;;;;;;;;;;5090566;28;20031;-48
2021/05/21 01:29:13;;;;;;;5.70;1.70;;;;;;;;;;5090939;28;20126;-48
2021/05/21 01:31:42;;;;;;;2.63;1.58;;;;;;;;;;5091550;28;20347;-48
2021/05/21 01:34:08;;;;;;;1.60;1.30;;;;;;;;;;5091276;28;20279;-48
2021/05/21 01:36:35;;;;;;;2.13;1.33;;;;;;;;;;5091675;28;20093;-48
2021/05/21 01:39:07;;;;;;;2.35;1.45;;;;;;;;;;5091166;28;20024;-49
2021/05/21 01:41:34;;;;;;;1.83;1.60;;;;;;;;;;5088427;28;20035;-48
2021/05/21 01:44:00;;;;;;;1.45;1.30;;;;;;;;;;5071327;28;20317;-48
2021/05/21 01:46:26;;;;;;;1.33;1.23;;;;;;;;;;5071176;28;20048;-48
2021/05/21 01:48:52;;;;;;;3.38;1.58;;;;;;;;;;5071167;28;20067;-48
2021/05/21 01:51:18;;;;;;;4.75;1.40;;;;;;;;;;5070750;28;20054;-48
2021/05/21 01:53:44;;;;;;;4.38;1.30;;;;;;;;;;5070642;28;20035;-48
2021/05/21 01:56:10;;;;;;;1.67;1.42;;;;;;;;;;5071259;28;20373;-48
2021/05/21 01:58:36;;;;;;;3.13;2.00;;;;;;;;;;5071435;28;20020;-48
2021/05/21 02:01:03;;;;;;;1.50;1.38;;;;;;;;;;5070574;28;20032;-48
2021/05/21 02:03:31;;;;;;;2.17;1.77;;;;;;;;;;5070999;28;20041;-47
2021/05/21 02:05:57;;;;;;;1.83;1.20;;;;;;;;;;5070895;28;20535;-48
2021/05/21 02:08:28;;;;;;;2.20;1.60;;;;;;;;;;5070627;28;20028;-48
2021/05/21 02:10:54;;;;;;;1.77;1.67;;;;;;;;;;5070639;28;20461;-47
2021/05/21 02:13:20;;;;;;;1.83;1.67;;;;;;;;;;5071262;28;20032;-48
2021/05/21 02:15:47;;;;;;;3.17;1.85;;;;;;;;;;5072592;28;20082;-48
2021/05/21 02:18:13;;;;;;;1.95;1.60;;;;;;;;;;5091160;28;20106;-48
2021/05/21 02:20:39;;;;;;;1.85;1.67;;;;;;;;;;5083355;28;20433;-48
2021/05/21 02:23:06;;;;;;;5.10;1.90;;;;;;;;;;5090154;28;20086;-48
2021/05/21 02:25:32;;;;;;;2.58;1.90;;;;;;;;;;5091495;28;20111;-48
2021/05/21 02:27:58;;;;;;;2.90;1.90;;;;;;;;;;5091090;28;20028;-48
2021/05/21 02:30:25;;;;;;;2.03;1.48;;;;;;;;;;5089969;28;20035;-48
2021/05/21 02:32:51;;;;;;;2.25;1.50;;;;;;;;;;5090918;28;20050;-48
2021/05/21 02:35:18;;;;;;;2.83;1.95;;;;;;;;;;5091251;28;20024;-49
2021/05/21 02:37:44;;;;;;;2.28;1.40;;;;;;;;;;5090959;28;20354;-48
2021/05/21 02:40:10;;;;;;;1.80;1.30;;;;;;;;;;5093973;28;20020;-47
2021/05/21 02:42:37;;;;;;;2.55;1.50;;;;;;;;;;5094429;28;20093;-48
2021/05/21 02:45:03;;;;;;;1.63;1.52;;;;;;;;;;5094837;28;20074;-48
2021/05/21 02:47:31;;;;;;;2.45;1.63;;;;;;;;;;5094883;28;20020;-48
2021/05/21 02:49:57;;;;;;;2.72;1.50;;;;;;;;;;5094620;28;20016;-48
2021/05/21 02:52:23;;;;;;;1.75;1.40;;;;;;;;;;5094474;28;20020;-49
2021/05/21 02:54:49;;;;;;;6.75;1.92;;;;;;;;;;5094830;28;20023;-47
2021/05/21 02:57:15;;;;;;;1.75;1.50;;;;;;;;;;5094510;28;20016;-48
2021/05/21 02:59:41;;;;;;;3.08;1.40;;;;;;;;;;5094475;28;20043;-48
2021/05/21 03:02:07;;;;;;;2.90;1.83;;;;;;;;;;5093521;28;20047;-47
2021/05/21 03:04:33;;;;;;;1.60;1.50;;;;;;;;;;5094707;28;20008;-47
2021/05/21 03:06:59;;;;;;;3.97;1.70;;;;;;;;;;5094579;28;20023;-48
2021/05/21 03:09:25;;;;;;;2.45;1.50;;;;;;;;;;5094371;28;20443;-48
2021/05/21 03:11:51;;;;;;;4.35;1.60;;;;;;;;;;5093483;28;20111;-48
2021/05/21 03:14:18;;;;;;;4.47;1.50;;;;;;;;;;5094191;28;20130;-48
2021/05/21 03:16:44;;;;;;;1.92;1.58;;;;;;;;;;5093423;28;20024;-47
2021/05/21 03:19:10;;;;;;;4.55;1.70;;;;;;;;;;5094075;28;20031;-48
2021/05/21 03:21:36;;;;;;;2.80;1.85;;;;;;;;;;5093771;28;20081;-47
2021/05/21 03:24:02;;;;;;;3.40;1.60;;;;;;;;;;5093868;28;20075;-48
2021/05/21 03:26:28;;;;;;;1.83;1.52;;;;;;;;;;5093591;28;20477;-48
2021/05/21 03:28:54;;;;;;;1.88;1.30;;;;;;;;;;5093927;28;20055;-48
2021/05/21 03:31:20;;;;;;;1.40;1.30;;;;;;;;;;5093966;28;20069;-47
2021/05/21 03:33:46;;;;;;;6.97;1.15;;;;;;;;;;5093534;28;20020;-48
2021/05/21 03:36:12;;;;;;;2.20;1.35;;;;;;;;;;5093470;28;20024;-48
2021/05/21 03:38:38;;;;;;;2.10;1.50;;;;;;;;;;5093463;28;20024;-48
2021/05/21 03:41:06;;;;;;;2.42;1.45;;;;;;;;;;5092965;28;20524;-48
2021/05/21 03:43:32;;;;;;;1.33;1.23;;;;;;;;;;5093740;28;20058;-48
2021/05/21 03:45:58;;;;;;;5.32;1.65;;;;;;;;;;5093456;28;20035;-48
2021/05/21 03:48:24;;;;;;;2.35;1.20;;;;;;;;;;5093669;28;20028;-48
2021/05/21 03:50:50;;;;;;;1.90;1.40;;;;;;;;;;5092063;28;20441;-49
2021/05/21 03:53:16;;;;;;;3.83;1.55;;;;;;;;;;5093216;28;20039;-47
2021/05/21 03:55:42;;;;;;;4.47;1.52;;;;;;;;;;5093568;28;20024;-48
2021/05/21 03:58:08;;;;;;;2.78;1.25;;;;;;;;;;5093297;28;20089;-48
2021/05/21 04:00:34;;;;;;;1.73;1.30;;;;;;;;;;5093014;28;20031;-47
2021/05/21 04:03:00;;;;;;;2.58;1.50;;;;;;;;;;5093004;28;20032;-48
2021/05/21 04:05:26;;;;;;;3.15;1.58;;;;;;;;;;5093411;28;20413;-48
2021/05/21 04:07:52;;;;;;;1.80;1.38;;;;;;;;;;5092847;28;20052;-47
2021/05/21 04:10:19;;;;;;;2.42;1.70;;;;;;;;;;5092829;28;20051;-48
2021/05/21 04:12:45;;;;;;;1.85;1.38;;;;;;;;;;5092917;28;20482;-48
2021/05/21 04:15:12;;;;;;;1.48;1.17;;;;;;;;;;5093258;28;20020;-48
2021/05/21 04:17:38;;;;;;;1.70;1.33;;;;;;;;;;5092959;28;20024;-48
2021/05/21 04:20:04;;;;;;;2.08;1.55;;;;;;;;;;5092349;28;20024;-48
2021/05/21 04:22:30;;;;;;;2.45;1.30;;;;;;;;;;5092221;28;20036;-48
2021/05/21 04:24:56;;;;;;;5.53;1.27;;;;;;;;;;5092727;28;20153;-48
2021/05/21 04:27:22;;;;;;;1.83;1.30;;;;;;;;;;5092475;28;20028;-48
2021/05/21 04:29:48;;;;;;;1.58;1.20;;;;;;;;;;5092229;28;20036;-48
2021/05/21 04:32:14;;;;;;;1.50;1.40;;;;;;;;;;5092514;28;20059;-48
2021/05/21 04:34:42;;;;;;;2.42;1.45;;;;;;;;;;5092906;28;20111;-48
2021/05/21 04:37:08;;;;;;;2.70;1.60;;;;;;;;;;5092008;28;20024;-48
2021/05/21 04:39:34;;;;;;;1.60;1.50;;;;;;;;;;5092486;28;20393;-47
2021/05/21 04:42:00;;;;;;;2.67;1.80;;;;;;;;;;5092093;28;20513;-48
2021/05/21 04:44:26;;;;;;;2.10;1.35;;;;;;;;;;5092630;28;20035;-48
2021/05/21 04:46:52;;;;;;;5.15;1.40;;;;;;;;;;5092511;28;20040;-48
2021/05/21 04:49:33;;;;;;;2.60;2.15;;;;;;;;;;5092480;28;20085;-49
2021/05/21 04:52:00;;;;;;;2.33;1.75;;;;;;;;;;5092127;28;20388;-47
2021/05/21 04:54:26;;;;;;;2.08;1.50;;;;;;;;;;5092529;28;20044;-48
2021/05/21 04:56:53;;;;;;;2.25;1.30;;;;;;;;;;5092026;28;20024;-49
2021/05/21 04:59:19;;;;;;;1.95;1.50;;;;;;;;;;5091365;28;20442;-48
2021/05/21 05:01:45;;;;;;;1.63;1.15;;;;;;;;;;5091999;28;20099;-48
2021/05/21 05:04:11;;;;;;;2.65;1.45;;;;;;;;;;5091204;28;20024;-48
2021/05/21 05:06:37;;;;;;;1.75;1.30;;;;;;;;;;5091126;28;20023;-47
2021/05/21 05:09:03;;;;;;;5.00;1.52;;;;;;;;;;5071926;28;20025;-48
2021/05/21 05:11:29;;;;;;;2.63;1.33;;;;;;;;;;5071377;28;20327;-47
2021/05/21 05:13:55;;;;;;;1.40;1.30;;;;;;;;;;5071473;28;20027;-48
2021/05/21 05:16:21;;;;;;;8.88;1.33;;;;;;;;;;5078280;28;20016;-48
2021/05/21 05:18:50;;;;;;;2.03;1.30;;;;;;;;;;5091655;28;20062;-48
2021/05/21 05:21:17;;;;;;;6.63;1.45;;;;;;;;;;5091460;28;20028;-48
2021/05/21 05:23:43;;;;;;;3.05;1.25;;;;;;;;;;5091848;28;20012;-48
2021/05/21 05:26:12;;;;;;;1.40;1.00;;;;;;;;;;5091588;28;20480;-47
2021/05/21 05:28:38;;;;;;;1.10;1.00;;;;;;;;;;5091629;28;20036;-48
2021/05/21 05:31:04;;;;;;;4.10;0.80;;;;;;;;;;5091649;28;20063;-48
2021/05/21 05:33:30;;;;;;;0.93;0.90;;;;;;;;;;5091673;28;20020;-48
2021/05/21 05:35:56;;;;;;;2.20;1.60;;;;;;;;;;5091483;28;20028;-48
2021/05/21 05:38:22;;;;;;;1.80;1.10;;;;;;;;;;5091269;28;20402;-47
2021/05/21 05:40:48;;;;;;;3.55;1.30;;;;;;;;;;5091207;28;20066;-48
2021/05/21 05:43:14;;;;;;;2.08;1.35;;;;;;;;;;5091362;28;20063;-48
2021/05/21 05:45:40;;;;;;;3.20;1.30;;;;;;;;;;5091177;28;20441;-47
2021/05/21 05:48:06;;;;;;;1.27;1.17;;;;;;;;;;5090027;28;20028;-47
2021/05/21 05:50:32;;;;;;;1.00;0.90;;;;;;;;;;5091197;28;20441;-48
2021/05/21 05:53:00;;;;;;;1.42;1.25;;;;;;;;;;5091276;28;20053;-48
2021/05/21 05:55:26;;;;;;;2.28;1.30;;;;;;;;;;5091767;28;20480;-47
2021/05/21 05:57:52;;;;;;;2.88;1.33;;;;;;;;;;5091712;28;20301;-48
2021/05/21 06:00:18;;;;;;;6.18;1.00;;;;;;;;;;5090827;28;20386;-48
2021/05/21 06:02:44;;;;;;;2.58;1.00;;;;;;;;;;5091376;28;20383;-48
2021/05/21 06:05:10;;;;;;;0.93;0.90;;;;;;;;;;5091472;28;20020;-48
2021/05/21 06:07:36;;;;;;;1.10;1.00;;;;;;;;;;5091263;28;20028;-48
2021/05/21 06:10:03;;;;;;;1.48;0.90;;;;;;;;;;5091211;28;20073;-49
2021/05/21 06:12:29;;;;;;;0.82;0.70;;;;;;;;;;5090680;28;20023;-47
2021/05/21 06:14:55;;;;;;;3.15;0.90;;;;;;;;;;5094141;28;20028;-47
2021/05/21 06:17:21;;;;;;;0.95;0.85;;;;;;;;;;5095279;28;20055;-48
2021/05/21 06:19:47;;;;;;;0.80;0.80;;;;;;;;;;5095301;28;20031;-47
2021/05/21 06:22:13;;;;;;;0.57;0.57;;;;;;;;;;5094891;28;20464;-48
2021/05/21 06:24:42;;;;;;;0.80;0.80;;;;;;;;;;5095093;28;20453;-46
2021/05/21 06:29:34;;;;;;;2.10;1.08;;;;;;;;;;5094430;28;20123;-48
2021/05/21 06:32:00;;;;;;;0.73;0.73;;;;;;;;;;5094954;28;20425;-48
2021/05/21 06:34:26;;;;;;;0.80;0.80;;;;;;;;;;5094964;28;20020;-48
2021/05/21 06:36:52;;;;;;;0.75;0.75;;;;;;;;;;5095262;28;20082;-47
2021/05/21 06:39:18;;;;;;;2.05;1.00;;;;;;;;;;5094918;28;20357;-48
2021/05/21 06:41:44;;;;;;;1.92;0.90;;;;;;;;;;5094205;28;20511;-48
2021/05/21 06:44:10;;;;;;;0.80;0.80;;;;;;;;;;5094162;28;20081;-47
2021/05/21 06:46:36;;;;;;;1.40;0.80;;;;;;;;;;5095060;28;20020;-48
2021/05/21 06:49:02;;;;;;;1.77;0.82;;;;;;;;;;5094436;28;20028;-48
2021/05/21 06:51:28;;;;;;;1.15;0.70;;;;;;;;;;5094358;28;20027;-47
2021/05/21 06:53:54;;;;;;;1.58;1.00;;;;;;;;;;5094160;28;20494;-48
2021/05/21 06:56:20;;;;;;;1.73;0.82;;;;;;;;;;5094218;28;20024;-48
2021/05/21 06:58:46;;;;;;;2.13;1.00;;;;;;;;;;5094554;28;20077;-48
2021/05/21 07:01:12;;;;;;;0.73;0.70;;;;;;;;;;5094191;28;20092;-48
2021/05/21 07:03:39;;;;;;;2.45;1.30;;;;;;;;;;5094586;28;20047;-48
2021/05/21 07:06:05;;;;;;;0.95;0.85;;;;;;;;;;5094619;28;20255;-48
2021/05/21 07:08:31;;;;;;;0.80;0.80;;;;;;;;;;5094583;28;20129;-47
2021/05/21 07:10:58;;;;;;;0.73;0.52;;;;;;;;;;5093671;28;20119;-48
2021/05/21 07:13:26;;;;;;;1.80;1.20;;;;;;;;;;5094499;28;20059;-47
2021/05/21 07:15:52;;;;;;;1.10;1.00;;;;;;;;;;5094220;28;20073;-48
2021/05/21 07:18:18;;;;;;;1.52;1.08;;;;;;;;;;5094094;28;20109;-48
2021/05/21 07:20:46;;;;;;;0.80;0.80;;;;;;;;;;5093786;28;20055;-47
2021/05/21 07:23:12;;;;;;;8.30;1.15;;;;;;;;;;5094139;28;20035;-47
2021/05/21 07:25:39;;;;;;;1.00;0.90;;;;;;;;;;5093817;28;20020;-48
2021/05/21 07:28:05;;;;;;;2.97;0.90;;;;;;;;;;5094079;28;20070;-48
2021/05/21 07:30:31;;;;;;;1.38;0.90;;;;;;;;;;5093604;28;20213;-48
2021/05/21 07:32:57;;;;;;;1.13;0.90;;;;;;;;;;5093774;28;20281;-47
2021/05/21 07:35:24;;;;;;;1.15;0.80;;;;;;;;;;5093435;28;20043;-48
2021/05/21 07:37:50;;;;;;;1.10;1.00;;;;;;;;;;5094448;28;20039;-47
2021/05/21 07:40:18;;;;;;;0.88;0.88;;;;;;;;;;5093438;28;20032;-47
2021/05/21 07:42:45;;;;;;;1.00;0.80;;;;;;;;;;5093758;28;20126;-47
2021/05/21 07:45:11;;;;;;;4.50;0.98;;;;;;;;;;5093653;28;20016;-47
2021/05/21 07:47:37;;;;;;;9.18;1.10;;;;;;;;;;5093677;28;20023;-47
2021/05/21 07:50:07;;;;;;;3.95;1.05;;;;;;;;;;5093254;28;20046;-47
2021/05/21 07:52:33;;;;;;;3.20;0.95;;;;;;;;;;5092751;28;20389;-47
2021/05/21 07:55:01;;;;;;;0.60;0.60;;;;;;;;;;5093328;28;20024;-47
2021/05/21 07:57:27;;;;;;;0.65;0.52;;;;;;;;;;5093427;28;20086;-47
2021/05/21 07:59:53;;;;;;;1.67;0.73;;;;;;;;;;5093052;28;20373;-47
2021/05/21 08:02:19;;;;;;;0.60;0.60;;;;;;;;;;5093143;28;20036;-47
2021/05/21 08:04:45;;;;;;;1.10;1.00;;;;;;;;;;5093336;28;20074;-47
2021/05/21 08:07:11;;;;;;;0.40;0.40;;;;;;;;;;5089504;28;20025;-47
2021/05/21 08:09:39;;;;;;;1.70;0.80;;;;;;;;;;5072867;28;20082;-47
2021/05/21 08:12:06;;;;;;;0.75;0.65;;;;;;;;;;5072570;28;20450;-46
2021/05/21 08:14:32;;;;;;;0.60;0.60;;;;;;;;;;5072557;28;20031;-47
2021/05/21 08:16:58;;;;;;;1.65;1.02;;;;;;;;;;5084396;28;20032;-48
2021/05/21 08:19:24;;;;;;;1.35;1.02;;;;;;;;;;5093302;28;20041;-47
2021/05/21 08:21:51;;;;;;;0.80;0.70;;;;;;;;;;5092757;28;20024;-47
2021/05/21 08:24:17;;;;;;;0.30;0.30;;;;;;;;;;5092856;28;20024;-47
2021/05/21 08:26:43;;;;;;;0.40;0.40;;;;;;;;;;5092690;28;20058;-48
2021/05/21 08:29:09;;;;;;;4.38;0.63;;;;;;;;;;5092381;28;20043;-47
2021/05/21 08:31:35;;;;;;;0.88;0.73;;;;;;;;;;5092394;28;20103;-47
2021/05/21 08:34:01;;;;;;;0.68;0.55;;;;;;;;;;5092982;28;20032;-47
2021/05/21 08:36:27;;;;;;;2.30;0.80;;;;;;;;;;5092309;28;20285;-47
2021/05/21 08:38:53;;;;;;;1.00;0.77;;;;;;;;;;5092562;28;20032;-48
2021/05/21 08:41:29;;;;;;;5.05;0.40;;;;;;;;;;5092101;28;20048;-47
2021/05/21 08:43:56;;;;;;;0.60;0.60;;;;;;;;;;5092414;28;20441;-47
2021/05/21 08:46:26;;;;;;;0.55;0.55;;;;;;;;;;5092551;28;20111;-48
2021/05/21 08:48:57;;;;;;;0.80;0.80;;;;;;;;;;5092760;28;20059;-47
2021/05/21 08:51:23;;;;;;;0.40;0.40;;;;;;;;;;5091912;28;20362;-47
2021/05/21 08:53:49;;;;;;;0.30;0.30;;;;;;;;;;5092268;28;20358;-48
2021/05/21 08:56:15;;;;;;;0.60;0.60;;;;;;;;;;5092144;28;20024;-47
2021/05/21 08:58:43;;;;;;;0.40;0.40;;;;;;;;;;5092418;28;20046;-47
2021/05/21 09:01:09;;;;;;;0.88;0.50;;;;;;;;;;5091883;28;20020;-47
2021/05/21 09:03:35;;;;;;;0.82;0.82;;;;;;;;;;5092090;28;20028;-47
2021/05/21 09:06:15;;;;;;;0.90;0.80;;;;;;;;;;5091896;28;20111;-48
2021/05/21 09:08:44;;;;;;;0.50;0.50;;;;;;;;;;5091637;28;20024;-47
2021/05/21 09:11:30;;;;;;;0.57;0.57;;;;;;;;;;5091500;28;20269;-48
2021/05/21 09:13:58;;;;;;;1.13;0.65;;;;;;;;;;5091371;28;20062;-47
2021/05/21 09:16:26;;;;;;;1.48;0.77;;;;;;;;;;5091627;28;20473;-48
2021/05/21 09:19:04;;;;;;;0.55;0.40;;;;;;;;;;5091840;28;20028;-47
2021/05/21 09:21:45;;;;;;;0.40;0.40;;;;;;;;;;5091264;28;20523;-48
2021/05/21 09:24:12;;;;;;;0.60;0.60;;;;;;;;;;5091716;28;20032;-47
2021/05/21 09:26:42;;;;;;;0.82;0.82;;;;;;;;;;5091589;28;20338;-48
2021/05/21 09:29:10;;;;;;;0.40;0.40;;;;;;;;;;5091619;28;20031;-47
2021/05/21 09:31:56;;;;;;;3.75;0.50;;;;;;;;;;5091657;28;20048;-48
2021/05/21 09:34:33;;;;;;;0.40;0.40;;;;;;;;;;5091699;28;20055;-48
2021/05/21 09:36:59;;;;;;;3.83;0.63;;;;;;;;;;5091266;28;20028;-48
2021/05/21 09:39:25;;;;;;;3.03;0.60;;;;;;;;;;5091066;28;20020;-48
2021/05/21 09:41:53;;;;;;;1.25;0.57;;;;;;;;;;5071067;28;20115;-47
2021/05/21 09:44:19;;;;;;;0.45;0.45;;;;;;;;;;5071765;28;20120;-49
2021/05/21 09:46:50;;;;;;;0.43;0.43;;;;;;;;;;5070959;28;20477;-48
2021/05/21 09:49:35;;;;;;;0.95;0.60;;;;;;;;;;5070548;28;20055;-48
2021/05/21 09:52:03;;;;;;;0.28;0.28;;;;;;;;;;5070580;28;20085;-48
2021/05/21 09:54:47;;;;;;;0.32;0.32;;;;;;;;;;5071150;28;20601;-47
2021/05/21 09:57:13;;;;;;;0.63;0.63;;;;;;;;;;5070923;28;20441;-48
2021/05/21 09:59:40;;;;;;;0.43;0.43;;;;;;;;;;5071265;28;20036;-47
2021/05/21 10:02:33;;;;;;;0.47;0.47;;;;;;;;;;5070663;28;20045;-48
2021/05/21 10:04:59;;;;;;;0.75;0.50;;;;;;;;;;5070526;28;20033;-47
2021/05/21 10:07:26;;;;;;;0.57;0.45;;;;;;;;;;5070862;28;20020;-47
2021/05/21 10:09:52;;;;;;;0.40;0.40;;;;;;;;;;5070932;28;20381;-48
2021/05/21 10:12:18;;;;;;;1.15;0.93;;;;;;;;;;5071063;28;20052;-48
2021/05/21 10:14:51;;;;;;;0.60;0.60;;;;;;;;;;5070875;28;20393;-48
2021/05/21 10:17:18;;;;;;;0.77;0.70;;;;;;;;;;5085484;28;20032;-48
2021/05/21 10:19:45;;;;;;;0.30;0.30;;;;;;;;;;5091116;28;20369;-48
2021/05/21 10:22:13;;;;;;;0.43;0.43;;;;;;;;;;5090831;28;20384;-48
2021/05/21 10:24:40;;;;;;;1.90;1.15;;;;;;;;;;5090399;28;20221;-47
2021/05/21 10:27:11;;;;;;;0.60;0.60;;;;;;;;;;5091261;28;20024;-47
2021/05/21 10:29:37;;;;;;;0.65;0.50;;;;;;;;;;5091085;28;20049;-48
2021/05/21 10:32:10;;;;;;;0.77;0.60;;;;;;;;;;5090236;28;20091;-48
2021/05/21 10:34:49;;;;;;;0.40;0.40;;;;;;;;;;5090498;28;20028;-47
2021/05/21 10:37:19;;;;;;;0.88;0.70;;;;;;;;;;5082868;28;20040;-48
2021/05/21 10:40:01;;;;;;;1.58;0.75;;;;;;;;;;5086948;28;20047;-48
2021/05/21 10:42:28;;;;;;;1.70;0.77;;;;;;;;;;5083700;28;20055;-48
2021/05/21 10:44:55;;;;;;;0.52;0.20;;;;;;;;;;5090816;28;20036;-48
2021/05/21 10:47:21;;;;;;;3.92;0.90;;;;;;;;;;5090337;28;20032;-48
2021/05/21 10:49:53;;;;;;;0.32;0.32;;;;;;;;;;5090477;28;20009;-48
2021/05/21 10:52:19;;;;;;;1.35;0.90;;;;;;;;;;5090544;28;20541;-48
2021/05/21 10:54:49;;;;;;;0.50;0.50;;;;;;;;;;5090701;28;20020;-48
2021/05/21 10:57:19;;;;;;;0.90;0.68;;;;;;;;;;5090458;28;20107;-47
2021/05/21 10:59:51;;;;;;;0.98;0.90;;;;;;;;;;5091658;28;20107;-47
2021/05/21 11:02:18;;;;;;;1.75;1.05;;;;;;;;;;5093993;28;20046;-47
2021/05/21 11:04:44;;;;;;;1.33;0.77;;;;;;;;;;5093998;28;20028;-48
2021/05/21 11:07:11;;;;;;;1.00;1.00;;;;;;;;;;5093989;28;20039;-47
2021/05/21 11:09:44;;;;;;;1.33;0.60;;;;;;;;;;5094101;28;20335;-48
2021/05/21 11:12:15;;;;;;;0.20;0.20;;;;;;;;;;5093460;28;20066;-47
2021/05/21 11:14:45;;;;;;;0.30;0.30;;;;;;;;;;5091101;28;20139;-47
2021/05/21 11:17:11;;;;;;;2.40;0.60;;;;;;;;;;5093615;28;20016;-47
2021/05/21 11:19:43;;;;;;;0.82;0.52;;;;;;;;;;5093147;28;20046;-47
2021/05/21 11:22:22;;;;;;;0.10;0.10;;;;;;;;;;5093653;28;20070;-47
2021/05/21 11:24:48;;;;;;;1.25;0.85;;;;;;;;;;5094065;28;20048;-48
2021/05/21 11:27:15;;;;;;;0.60;0.60;;;;;;;;;;5093372;28;20445;-47
2021/05/21 11:29:42;;;;;;;1.33;0.90;;;;;;;;;;5092933;28;20109;-47
2021/05/21 11:32:08;;;;;;;1.08;0.93;;;;;;;;;;5090436;28;20012;-48
2021/05/21 11:34:34;;;;;;;7.03;1.05;;;;;;;;;;5093507;28;20111;-47
2021/05/21 11:37:02;;;;;;;1.08;0.98;;;;;;;;;;5093505;28;20461;-47
2021/05/21 11:39:28;;;;;;;1.30;0.73;;;;;;;;;;5093942;28;20025;-47
2021/05/21 11:41:54;;;;;;;3.05;0.93;;;;;;;;;;5092997;28;20114;-47
2021/05/21 11:44:25;;;;;;;2.20;1.10;;;;;;;;;;5093691;28;20028;-48
2021/05/21 11:46:56;;;;;;;3.67;1.05;;;;;;;;;;5093717;28;20036;-47
2021/05/21 11:49:23;;;;;;;;;;;;;;;;;;5093913;28;20048;-48
2021/05/21 11:51:56;;;;;;;0.82;0.70;;;;;;;;;;5093145;28;20000;-47
2021/05/21 11:54:22;;;;;;;0.93;0.93;;;;;;;;;;5093773;28;20020;-48
2021/05/21 11:56:49;;;;;;;0.82;0.77;;;;;;;;;;5093199;28;20031;-47
2021/05/21 11:59:17;;;;;;;2.05;0.80;;;;;;;;;;5093500;28;20020;-47
2021/05/21 12:01:45;;;;;;;0.77;0.70;;;;;;;;;;5092776;28;20396;-47
2021/05/21 12:04:11;;;;;;;0.98;0.75;;;;;;;;;;5093324;28;20107;-47
2021/05/21 12:06:39;;;;;;;2.05;0.77;;;;;;;;;;5093286;28;20050;-47
2021/05/21 12:09:07;;;;;;;0.90;0.73;;;;;;;;;;5073185;28;20073;-48
2021/05/21 12:11:33;;;;;;;1.05;0.98;;;;;;;;;;5071323;28;20385;-47
2021/05/21 12:14:03;;;;;;;1.30;0.73;;;;;;;;;;5072903;28;20100;-48
2021/05/21 12:16:30;;;;;;;0.80;0.80;;;;;;;;;;5080435;28;20361;-47
2021/05/21 12:18:57;;;;;;;0.68;0.63;;;;;;;;;;5092950;28;20109;-48
2021/05/21 12:21:26;;;;;;;2.40;0.80;;;;;;;;;;5093091;28;20366;-48
2021/05/21 12:23:53;;;;;;;4.25;0.88;;;;;;;;;;5092565;28;20054;-47
2021/05/21 12:26:20;;;;;;;0.82;0.73;;;;;;;;;;5092997;28;20024;-48
2021/05/21 12:28:46;;;;;;;2.17;0.75;;;;;;;;;;5092585;28;20019;-47
2021/05/21 12:31:12;;;;;;;0.80;0.70;;;;;;;;;;5092595;28;20044;-48
2021/05/21 12:33:42;;;;;;;0.82;0.82;;;;;;;;;;5092687;28;20020;-50
2021/05/21 12:36:16;;;;;;;0.80;0.80;;;;;;;;;;5092579;28;20028;-48
2021/05/21 12:39:11;;;;;;;1.73;1.25;;;;;;;;;;5092649;28;20070;-50
2021/05/21 12:41:39;;;;;;;0.98;0.70;;;;;;;;;;5068915;28;20102;-48
2021/05/21 12:44:12;;;;;;;2.00;0.82;;;;;;;;;;5069313;28;20284;-47
2021/05/21 12:46:47;;;;;;;0.85;0.82;;;;;;;;;;5069058;28;20124;-48
2021/05/21 12:49:13;;;;;;;1.58;0.98;;;;;;;;;;5069626;28;20020;-48
2021/05/21 12:51:39;;;;;;;0.90;0.80;;;;;;;;;;5069132;28;20081;-48
2021/05/21 12:54:16;;;;;;;1.25;0.75;;;;;;;;;;5068894;28;20029;-47
2021/05/21 12:56:42;;;;;;;1.10;1.00;;;;;;;;;;5069092;28;20481;-47
2021/05/21 12:59:10;;;;;;;1.20;1.00;;;;;;;;;;5068726;28;20613;-48
2021/05/21 13:01:37;;;;;;;0.70;0.70;;;;;;;;;;5068978;28;20024;-47
2021/05/21 13:04:10;;;;;;;3.67;1.67;;;;;;;;;;5069129;28;20051;-47
2021/05/21 13:06:36;;;;;;;3.95;1.45;;;;;;;;;;5069252;28;20020;-48
2021/05/21 13:09:04;;;;;;;4.75;1.83;;;;;;;;;;5068782;28;20398;-47
2021/05/21 13:11:30;;;;;;;1.20;1.10;;;;;;;;;;5068303;28;20051;-48
2021/05/21 13:14:03;;;;;;;1.98;0.90;;;;;;;;;;5068510;28;20027;-48
2021/05/21 13:16:47;;;;;;;0.80;0.80;;;;;;;;;;5077124;28;20020;-48
2021/05/21 13:19:20;;;;;;;2.10;0.82;;;;;;;;;;5071416;28;20060;-48
2021/05/21 13:21:46;;;;;;;0.95;0.95;;;;;;;;;;5071650;28;20071;-47
2021/05/21 13:24:14;;;;;;;1.98;1.02;;;;;;;;;;5071069;28;20151;-48
2021/05/21 13:26:44;;;;;;;0.32;0.32;;;;;;;;;;5071492;28;20099;-48
2021/05/21 13:29:10;;;;;;;0.88;0.80;;;;;;;;;;5071146;28;20461;-47
2021/05/21 13:31:36;;;;;;;2.78;1.30;;;;;;;;;;5071151;28;20500;-47
2021/05/21 13:34:02;;;;;;;0.73;0.73;;;;;;;;;;5071328;28;20438;-48
2021/05/21 13:36:28;;;;;;;0.45;0.40;;;;;;;;;;5071386;28;20355;-48
2021/05/21 13:38:54;;;;;;;0.43;0.43;;;;;;;;;;5071219;28;20035;-48
2021/05/21 13:41:20;;;;;;;2.03;0.80;;;;;;;;;;5090930;28;20020;-47
2021/05/21 13:43:46;;;;;;;1.27;0.77;;;;;;;;;;5091450;28;20028;-47
2021/05/21 13:46:12;;;;;;;3.55;0.40;;;;;;;;;;5091782;28;20453;-47
2021/05/21 13:48:38;;;;;;;1.20;0.70;;;;;;;;;;5091534;28;20025;-48
2021/05/21 13:51:04;;;;;;;0.70;0.70;;;;;;;;;;5091255;28;20016;-48
2021/05/21 13:53:30;;;;;;;1.10;0.70;;;;;;;;;;5091414;28;20031;-47
2021/05/21 13:55:56;;;;;;;3.50;0.75;;;;;;;;;;5091519;28;20024;-48
2021/05/21 13:58:22;;;;;;;0.50;0.50;;;;;;;;;;5091323;28;20055;-47
2021/05/21 14:00:48;;;;;;;1.60;0.77;;;;;;;;;;5091212;28;20458;-48
2021/05/21 14:03:14;;;;;;;1.08;0.63;;;;;;;;;;5091168;28;20025;-47
2021/05/21 14:05:40;;;;;;;1.27;0.60;;;;;;;;;;5091257;28;20039;-48
2021/05/21 14:08:06;;;;;;;1.77;0.90;;;;;;;;;;5079524;28;20025;-47
2021/05/21 14:10:32;;;;;;;1.63;1.05;;;;;;;;;;5070940;28;20020;-48
2021/05/21 14:12:58;;;;;;;1.40;0.90;;;;;;;;;;5071087;28;20024;-48
2021/05/21 14:15:24;;;;;;;1.25;0.80;;;;;;;;;;5071154;28;20017;-48
2021/05/21 14:17:50;;;;;;;1.75;0.90;;;;;;;;;;5090221;28;20115;-47
2021/05/21 14:20:17;;;;;;;1.23;0.90;;;;;;;;;;5090480;28;20107;-47
2021/05/21 14:22:43;;;;;;;1.52;0.73;;;;;;;;;;5090786;28;20350;-47
2021/05/21 14:25:11;;;;;;;0.98;0.80;;;;;;;;;;5091084;28;20111;-47
2021/05/21 14:27:38;;;;;;;3.47;0.90;;;;;;;;;;5091212;28;20032;-48
2021/05/21 14:30:05;;;;;;;2.05;1.00;;;;;;;;;;5090577;28;20044;-47
2021/05/21 14:32:31;;;;;;;1.92;0.82;;;;;;;;;;5091037;28;20058;-47
2021/05/21 14:34:57;;;;;;;0.70;0.70;;;;;;;;;;5091932;28;20123;-48
2021/05/21 14:37:23;;;;;;;0.77;0.57;;;;;;;;;;5094911;28;20042;-47
2021/05/21 14:39:49;;;;;;;0.65;0.65;;;;;;;;;;5094679;28;20103;-48
2021/05/21 14:42:15;;;;;;;0.90;0.70;;;;;;;;;;5094646;28;20053;-47
2021/05/21 14:44:42;;;;;;;1.17;1.00;;;;;;;;;;5094565;28;20381;-48
2021/05/21 14:47:08;;;;;;;0.85;0.60;;;;;;;;;;5094836;28;20099;-47